Arboga, California
Current Conditions -  °F | °C
As of 12:53 PM on Tuesday 21 Oct 2014 (Local Time) from KMYV Reporting Station
Clear Clear  
Wind Chill: 68°   Ceiling: Unl
Heat Index: 68°   Visibility: 10mi
Dew Point: 46°   Wind: 12mph
Humidity: 45%   Direction: 350°N
Pressure: 30.07"   Gusts: 20mph
Location:  39.0904°N, 121.552°W
Report Text: KMYV 211953Z AUTO 35010G17KT 10SM CLR 20/08 A3007 RMK AO2 SLP184 T02000078 PWINO $
Loading
Personal Weather Stations






























Interactive Weather Map New forecast layout! Learn more

10-Day Weather Forecast

Advertisements
Track Severe Weather on mobile